M I D A S
Marine Information and Data Acquisition System
Tripno 247 of the Zeeleeuw from 2002-04-22 07:12:33 to 2002-04-22 14:24:39
Back to CruiseResearch ActivitiesStationsMapUnderway DataData graphs

EquipmentUnitsComments
TimeDGPSUTC
LatitudeDGPSDM.mWGS84
LongitudeDGPSDM.mWGS84
SpeedMeteo Stationm/sRelative wind speed
DirectionMeteo StationdegRelative wind direction
TemperatureMeteo Stationdeg CelciusAir temperature
PressureMeteo StationPaAtmospheric pressure
HumidityMeteo Station%Relative humidity
Missing or incorrect values are displayed as -999
Metereological data collected by the RV Zeeleeuw from 2002-04-22 07:12:33 to 2002-04-22 14:24:39
Time Latitude Longitude Speed Direction Temperature Pressure Humidity
2002-04-22 07:13 51°16.129 2°53.501 6.8 261 12.1 103180 69
2002-04-22 07:14 51°16.329 2°53.327 6.8 257 12 103190 70
2002-04-22 07:15 51°16.535 2°53.162 7.1 263 11.9 103190 71
2002-04-22 07:16 51°16.739 2°53.001 7.4 268 11.9 103180 71
2002-04-22 07:17 51°16.932 2°52.814 7.2 259 11.8 103180 72
2002-04-22 07:18 51°17.128 2°52.628 6.5 253 11.8 103180 73
2002-04-22 07:19 51°17.318 2°52.432 8.3 261 11.8 103190 75
2002-04-22 07:20 51°17.483 2°52.188 8.8 265 11.7 103180 73
2002-04-22 07:21 51°17.628 2°51.919 8.9 265 11.6 103180 74
2002-04-22 07:22 51°17.757 2°51.637 8.9 268 11.6 103180 74
2002-04-22 07:23 51°17.888 2°51.358 8.1 262 11.5 103170 74
2002-04-22 07:24 51°18.02 2°51.067 8.2 263 11.5 103170 75
2002-04-22 07:25 51°18.148 2°50.783 7.9 258 11.5 103170 76
2002-04-22 07:26 51°18.275 2°50.492 8.1 258 11.4 103160 76
2002-04-22 07:27 51°18.4 2°50.201 8.3 257 11.4 103170 77
2002-04-22 07:28 51°18.531 2°49.902 7.9 256 11.3 103170 77
2002-04-22 07:29 51°18.651 2°49.612 7.6 259 11.3 103170 78
2002-04-22 07:30 51°18.771 2°49.324 7.5 263 11.2 103170 78
2002-04-22 07:31 51°18.892 2°49.038 8.5 267 11.2 103170 78
2002-04-22 07:32 51°19.013 2°48.746 8.4 266 11.1 103160 78
2002-04-22 07:33 51°19.135 2°48.456 8 260 11.1 103160 78
2002-04-22 07:34 51°19.255 2°48.166 7.6 260 11.1 103160 79
2002-04-22 07:35 51°19.38 2°47.876 8.1 253 11.1 103160 79
2002-04-22 07:36 51°19.503 2°47.581 7.9 261 11.1 103160 80
2002-04-22 07:37 51°19.632 2°47.284 8.6 267 11 103160 80
2002-04-22 07:38 51°19.735 2°46.977 9.2 264 11 103140 80
2002-04-22 07:39 51°19.811 2°46.657 8.5 264 11 103140 79
2002-04-22 07:40 51°19.89 2°46.331 8.6 266 11 103140 79
2002-04-22 07:41 51°19.965 2°46.017 8.2 267 11.1 103140 79
2002-04-22 07:42 51°20.042 2°45.709 8.2 263 11.1 103130 79
2002-04-22 07:43 51°20.122 2°45.393 8.9 261 11.1 103140 80
2002-04-22 07:44 51°20.191 2°45.07 9.7 258 11.1 103140 80
2002-04-22 07:45 51°20.25 2°44.742 9.3 258 11.1 103140 80
2002-04-22 07:46 51°20.307 2°44.415 9.3 262 11.1 103130 79
2002-04-22 07:47 51°20.362 2°44.088 9.8 263 11.1 103140 78
2002-04-22 07:48 51°20.417 2°43.758 9.5 262 11.1 103130 78
2002-04-22 07:49 51°20.457 2°43.427 9.9 263 11.1 103130 77
2002-04-22 07:51 51°20.5 2°43.086 5.8 292 11.1 -999 77
2002-04-22 07:52 51°20.547 2°42.99 5.4 298 11.2 103140 77
2002-04-22 07:53 51°20.631 2°42.833 6.5 278 11.2 103140 77
2002-04-22 07:54 51°20.723 2°42.565 8.2 267 11.3 103130 77
2002-04-22 07:55 51°20.78 2°42.258 9.3 260 11.3 103130 77
2002-04-22 07:56 51°20.781 2°41.94 9.3 263 11.3 103120 78
2002-04-22 07:57 51°20.796 2°41.609 9.7 262 11.3 103120 78
2002-04-22 07:58 51°20.813 2°41.276 10 261 11.3 103120 78
2002-04-22 07:59 51°20.832 2°40.938 10.3 260 11.2 103120 79
2002-04-22 08:00 51°20.85 2°40.593 9.6 260 11.2 103120 79
2002-04-22 08:01 51°20.868 2°40.262 10.6 264 11.2 103110 79
2002-04-22 08:02 51°20.887 2°39.921 10.4 263 11.1 103110 78
2002-04-22 08:03 51°20.906 2°39.584 10.9 265 11.1 103110 78
2002-04-22 08:04 51°20.925 2°39.256 10.1 264 11.1 103110 78
2002-04-22 08:05 51°20.945 2°38.919 10 263 11.2 103120 78
2002-04-22 08:06 51°20.966 2°38.583 10.1 261 11.2 103120 78
2002-04-22 08:07 51°20.985 2°38.247 10.2 261 11.2 103120 79
2002-04-22 08:08 51°21.006 2°37.917 9.8 259 11.3 103120 79
2002-04-22 08:09 51°21.03 2°37.576 10 258 11.3 103120 79
2002-04-22 08:10 51°21.053 2°37.243 10.4 257 11.3 103120 79
2002-04-22 08:11 51°21.077 2°36.902 10.1 259 11.3 103120 79
2002-04-22 08:12 51°21.096 2°36.563 10 260 11.3 103120 78
2002-04-22 08:13 51°21.114 2°36.241 10.3 262 11.3 103120 78
2002-04-22 08:14 51°21.133 2°35.915 10.4 262 11.3 103130 78
2002-04-22 08:15 51°21.154 2°35.588 9.9 258 11.4 103130 78
2002-04-22 08:16 51°21.178 2°35.255 9.8 261 11.4 103130 78
2002-04-22 08:17 51°21.202 2°34.922 10.1 258 11.4 103130 78
2002-04-22 08:18 51°21.227 2°34.587 10.3 256 11.4 103140 78
2002-04-22 08:19 51°21.253 2°34.259 10.5 258 11.4 103130 78
2002-04-22 08:20 51°21.28 2°33.917 10.4 255 11.4 103140 78
2002-04-22 08:21 51°21.308 2°33.584 10.5 255 11.4 103130 78
2002-04-22 08:22 51°21.339 2°33.244 10 260 11.4 103130 78
2002-04-22 08:23 51°21.397 2°32.905 10.6 259 11.4 103130 78
2002-04-22 08:24 51°21.496 2°32.582 9.6 266 11.4 103130 77
2002-04-22 08:25 51°21.579 2°32.267 10.4 265 11.4 103120 77
2002-04-22 08:26 51°21.666 2°31.949 9.4 271 11.3 103120 76
2002-04-22 08:27 51°21.826 2°31.698 6.9 273 11.4 103130 76
2002-04-22 08:28 51°22.032 2°31.54 6.5 280 11.4 103140 76
2002-04-22 08:29 51°22.262 2°31.447 5.4 277 11.4 103130 76
2002-04-22 08:30 51°22.484 2°31.335 6.1 272 11.5 103130 75
2002-04-22 08:31 51°22.645 2°31.107 10.3 270 11.6 103130 75
2002-04-22 08:32 51°22.704 2°30.801 12 260 11.6 103120 75
2002-04-22 08:33 51°22.714 2°30.477 11.5 258 11.6 103120 74
2002-04-22 08:34 51°22.703 2°30.158 11.9 257 11.6 103120 74
2002-04-22 08:35 51°22.694 2°29.831 11.7 257 11.6 103120 74
2002-04-22 08:36 51°22.686 2°29.517 11.3 253 11.6 103120 74
2002-04-22 08:37 51°22.677 2°29.198 11.7 252 11.6 103130 74
2002-04-22 08:38 51°22.66 2°28.878 11.7 252 11.6 103120 74
2002-04-22 08:39 51°22.645 2°28.552 12 256 11.6 103120 73
2002-04-22 08:40 51°22.65 2°28.223 12.1 256 11.7 103130 73
2002-04-22 08:41 51°22.657 2°27.887 10.9 257 11.7 103130 74
2002-04-22 08:42 51°22.662 2°27.558 11.1 258 11.6 103130 74
2002-04-22 08:43 51°22.667 2°27.219 11.2 257 11.6 103130 74
2002-04-22 08:44 51°22.671 2°26.889 11.7 256 11.5 103130 74
2002-04-22 08:45 51°22.676 2°26.549 11 262 11.5 103120 74
2002-04-22 08:46 51°22.707 2°26.221 9.1 270 11.5 103120 73
2002-04-22 08:47 51°22.854 2°25.976 7.3 279 11.5 103130 73
2002-04-22 08:48 51°23.071 2°25.863 5.3 268 11.5 103140 74
2002-04-22 08:49 51°23.31 2°25.821 4.8 272 11.5 103150 73
2002-04-22 08:50 51°23.545 2°25.807 5.6 287 11.5 103150 73
2002-04-22 08:51 51°23.789 2°25.826 3.4 264 11.5 103140 73
2002-04-22 08:52 51°24.026 2°25.861 4.9 279 11.5 103140 73
2002-04-22 08:53 51°24.273 2°25.878 4.8 278 11.6 103140 73
2002-04-22 08:54 51°24.511 2°25.905 3.2 268 11.6 103130 73
2002-04-22 08:55 51°24.755 2°25.934 4.3 279 11.6 103130 73
2002-04-22 08:56 51°25.004 2°25.967 4 283 11.7 103130 72
2002-04-22 08:57 51°25.248 2°25.997 3.9 275 11.7 103130 72
2002-04-22 08:58 51°25.487 2°26.027 3.9 285 11.7 103130 72
2002-04-22 08:59 51°25.732 2°26.054 4.7 281 11.8 103130 72
2002-04-22 09:00 51°25.973 2°26.081 3.9 271 11.8 103130 72
2002-04-22 09:01 51°26.213 2°26.106 5.3 279 11.8 103140 72
2002-04-22 09:02 51°26.45 2°26.131 4.8 276 11.8 103130 72
2002-04-22 09:03 51°26.694 2°26.155 4.6 270 11.8 103130 73
2002-04-22 09:04 51°26.935 2°26.193 4.7 276 11.8 103140 73
2002-04-22 09:05 51°27.172 2°26.223 4.6 277 11.8 103140 73
2002-04-22 09:06 51°27.414 2°26.248 4.9 278 11.8 103140 73
2002-04-22 09:07 51°27.659 2°26.322 4.1 266 11.8 103140 73
2002-04-22 09:08 51°27.902 2°26.378 4.4 270 11.8 103140 73
2002-04-22 09:09 51°28.137 2°26.439 4.4 273 11.8 103140 74
2002-04-22 09:10 51°28.383 2°26.503 3.9 257 11.8 103140 74
2002-04-22 09:11 51°28.596 2°26.594 1.2 271 11.8 103140 74
2002-04-22 09:12 51°28.695 2°26.729 2.4 101 11.9 103140 75
2002-04-22 09:13 51°28.735 2°26.841 3.3 109 11.9 103140 74
2002-04-22 09:14 51°28.769 2°26.929 3.2 85 11.8 103140 74
2002-04-22 09:15 51°28.791 2°26.962 4.3 63 11.7 103140 74
2002-04-22 09:16 51°28.808 2°26.985 4.1 55 11.6 103140 75
2002-04-22 09:17 51°28.83 2°27.01 4.3 69 11.5 103140 75
2002-04-22 09:18 51°28.852 2°27.036 4.4 62 11.4 103130 76
2002-04-22 09:19 51°28.875 2°27.065 4.4 65 11.4 103130 76
2002-04-22 09:20 51°28.906 2°27.109 3.1 61 11.4 103130 76
2002-04-22 09:21 51°29.016 2°27.129 6.3 286 11.4 103120 76
2002-04-22 09:22 51°29.114 2°26.927 9.1 274 11.5 103110 76
2002-04-22 09:23 51°29.284 2°26.704 7.6 275 11.6 103100 76
2002-04-22 09:24 51°29.493 2°26.513 7.1 274 11.6 103110 75
2002-04-22 09:25 51°29.694 2°26.311 8.7 278 11.6 103110 75
2002-04-22 09:26 51°29.894 2°26.111 8 272 11.7 103110 75
2002-04-22 09:27 51°30.098 2°25.908 7.8 273 11.7 103120 75
2002-04-22 09:28 51°30.302 2°25.705 8.6 274 11.7 103120 74
2002-04-22 09:29 51°30.429 2°25.42 11.5 263 11.7 103110 74
2002-04-22 09:30 51°30.542 2°25.118 9.6 265 11.6 103120 74
2002-04-22 09:31 51°30.669 2°24.829 10.5 267 11.6 103120 74
2002-04-22 09:32 51°30.797 2°24.529 9.7 262 11.6 103120 74
2002-04-22 09:33 51°30.923 2°24.237 9.3 261 11.6 103120 75
2002-04-22 09:34 51°31.049 2°23.943 10.5 263 11.6 103120 75
2002-04-22 09:35 51°31.172 2°23.656 10.1 265 11.6 103120 75
2002-04-22 09:36 51°31.308 2°23.376 10.8 269 11.5 103120 76
2002-04-22 09:37 51°31.447 2°23.088 9.9 267 11.5 103120 76
2002-04-22 09:38 51°31.596 2°22.825 9.8 265 11.4 103130 76
2002-04-22 09:39 51°31.761 2°22.567 10 267 11.4 103140 76
2002-04-22 09:40 51°31.944 2°22.343 9.7 275 11.4 103130 77
2002-04-22 09:41 51°32.14 2°22.155 7.8 279 11.4 103140 77
2002-04-22 09:42 51°32.38 2°22.173 3.4 268 11.4 103150 77
2002-04-22 09:43 51°32.579 2°22.42 2.9 247 11.5 103160 78
2002-04-22 09:44 51°32.796 2°22.635 2.6 240 11.5 103160 78
2002-04-22 09:45 51°33.006 2°22.866 3.1 253 11.6 103160 77
2002-04-22 09:46 51°33.221 2°23.11 2.7 254 11.6 103160 78
2002-04-22 09:47 51°33.431 2°23.348 2.9 225 11.7 103150 77
2002-04-22 09:48 51°33.644 2°23.585 2.5 239 11.7 103150 77
2002-04-22 09:49 51°33.854 2°23.822 2.7 246 11.7 103150 77
2002-04-22 09:50 51°34.058 2°24.053 2.3 248 11.8 103140 77
2002-04-22 09:51 51°34.26 2°24.274 2.6 215 11.8 103140 77
2002-04-22 09:52 51°34.468 2°24.506 1.9 135 11.9 103130 76
2002-04-22 09:53 51°34.672 2°24.735 2.1 255 11.9 103130 76
2002-04-22 09:54 51°34.878 2°24.962 2.2 247 11.9 103130 76
2002-04-22 09:55 51°35.082 2°25.194 2.2 216 11.9 103130 76
2002-04-22 09:56 51°35.289 2°25.422 2.9 234 11.9 103130 76
2002-04-22 09:57 51°35.496 2°25.651 2.1 253 11.9 103120 76
2002-04-22 09:58 51°35.7 2°25.881 2 228 11.9 103120 76
2002-04-22 09:59 51°35.904 2°26.107 1.9 209 11.9 103110 76
2002-04-22 10:00 51°36.108 2°26.334 1.6 222 11.9 103120 76
2002-04-22 10:01 51°36.267 2°26.632 2 204 11.9 103110 75
2002-04-22 10:02 51°36.441 2°26.916 1.7 235 11.8 103120 76
2002-04-22 10:03 51°36.615 2°27.199 1.8 211 11.7 103110 76
2002-04-22 10:04 51°36.78 2°27.486 2.1 190 11.7 103110 77
2002-04-22 10:05 51°36.955 2°27.777 2.3 177 11.6 103110 77
2002-04-22 10:06 51°37.125 2°28.066 1.5 176 11.6 103110 77
2002-04-22 10:07 51°37.294 2°28.357 1.6 213 11.5 103100 77
2002-04-22 10:08 51°37.465 2°28.645 1.9 196 11.5 103090 77
2002-04-22 10:09 51°37.634 2°28.932 2.4 177 11.5 103100 77
2002-04-22 10:10 51°37.806 2°29.222 2 171 11.4 103100 78
2002-04-22 10:11 51°37.977 2°29.515 1.8 182 11.4 103090 78
2002-04-22 10:12 51°38.147 2°29.808 1.8 179 11.4 103090 78
2002-04-22 10:13 51°38.319 2°30.101 3.1 176 11.4 103090 78
2002-04-22 10:14 51°38.489 2°30.391 3.1 169 11.4 103090 78
2002-04-22 10:15 51°38.66 2°30.681 3 172 11.3 103090 78
2002-04-22 10:16 51°38.829 2°30.971 2.7 192 11.3 103090 78
2002-04-22 10:17 51°38.997 2°31.258 2.3 207 11.3 103090 79
2002-04-22 10:18 51°39.164 2°31.542 3 192 11.3 103090 79
2002-04-22 10:19 51°39.335 2°31.824 3.2 173 11.3 103090 79
2002-04-22 10:20 51°39.501 2°32.107 2.7 189 11.2 103080 79
2002-04-22 10:21 51°39.668 2°32.387 2.5 191 11.2 103090 79
2002-04-22 10:22 51°39.832 2°32.661 2.9 192 11.2 103090 79
2002-04-22 10:23 51°40.001 2°32.943 2.8 198 11.2 103090 79
2002-04-22 10:24 51°40.162 2°33.231 3.3 181 11.2 103090 79
2002-04-22 10:25 51°40.321 2°33.519 3.1 182 11.2 103090 79
2002-04-22 10:26 51°40.489 2°33.822 2.7 175 11.2 103090 79
2002-04-22 10:27 51°40.652 2°34.109 2.1 197 11.2 103090 79
2002-04-22 10:28 51°40.8 2°34.413 2.7 184 11.2 103090 79
2002-04-22 10:29 51°40.929 2°34.732 3.6 171 11.2 103090 79
2002-04-22 10:30 51°41.006 2°35.095 6.4 177 11.2 103080 79
2002-04-22 10:31 51°40.967 2°35.454 7.5 188 11.1 103070 79
2002-04-22 10:32 51°40.894 2°35.802 9.3 191 11.2 103060 79
2002-04-22 10:33 51°40.8 2°36.133 9.1 190 11.1 103060 79
2002-04-22 10:34 51°40.705 2°36.465 9.3 190 11.1 103060 79
2002-04-22 10:35 51°40.609 2°36.8 9.2 192 11.2 103070 79
2002-04-22 10:36 51°40.514 2°37.133 9.1 192 11.2 103060 79
2002-04-22 10:37 51°40.418 2°37.467 9.2 195 11.1 103060 79
2002-04-22 10:38 51°40.322 2°37.802 8.5 192 11.1 103060 79
2002-04-22 10:39 51°40.23 2°38.13 9.2 190 11.1 103060 79
2002-04-22 10:40 51°40.141 2°38.466 8.5 193 11.1 103070 79
2002-04-22 10:41 51°40.054 2°38.807 8.8 192 11.1 103070 79
2002-04-22 10:42 51°39.965 2°39.143 8.8 191 11.1 103070 79
2002-04-22 10:43 51°39.877 2°39.477 8.5 189 11.1 103070 79
2002-04-22 10:44 51°39.785 2°39.82 7.9 189 11.2 103070 79
2002-04-22 10:45 51°39.696 2°40.162 8.8 188 11.2 103080 78
2002-04-22 10:46 51°39.606 2°40.502 7.1 190 11.2 103080 78
2002-04-22 10:47 51°39.517 2°40.842 7.8 192 11.2 103080 78
2002-04-22 10:48 51°39.427 2°41.183 8 190 11.3 103090 78
2002-04-22 10:49 51°39.335 2°41.519 7.3 186 11.3 103080 78
2002-04-22 10:50 51°39.242 2°41.853 7 186 11.3 103080 77
2002-04-22 10:51 51°39.148 2°42.188 7.8 187 11.4 103080 77
2002-04-22 10:52 51°39.055 2°42.524 7.4 183 11.3 103080 77
2002-04-22 10:53 51°38.961 2°42.861 6.9 186 11.4 103080 77
2002-04-22 10:54 51°38.868 2°43.199 8.1 188 11.3 103080 77
2002-04-22 10:55 51°38.775 2°43.536 8.2 187 11.3 103080 78
2002-04-22 10:56 51°38.681 2°43.871 7.2 181 11.3 103080 78
2002-04-22 10:57 51°38.587 2°44.204 8.3 190 11.3 103070 78
2002-04-22 10:58 51°38.495 2°44.528 8.3 189 11.3 103070 78
2002-04-22 10:59 51°38.391 2°44.857 8.5 189 11.3 103070 78
2002-04-22 11:00 51°38.288 2°45.179 8 194 11.3 103070 78
2002-04-22 11:01 51°38.161 2°45.476 8.7 198 11.3 103070 78
2002-04-22 11:02 51°37.995 2°45.653 12.7 220 11.3 103060 78
2002-04-22 11:03 51°37.799 2°45.587 12.2 225 11.5 103060 78
2002-04-22 11:04 51°37.604 2°45.492 12.2 222 11.6 103060 77
2002-04-22 11:05 51°37.408 2°45.4 13.4 224 11.7 103060 77
2002-04-22 11:06 51°37.212 2°45.308 12.9 227 11.8 103060 76
2002-04-22 11:07 51°37.015 2°45.21 12.8 228 11.8 103060 76
2002-04-22 11:08 51°36.881 2°44.976 13.2 245 11.8 103070 76
2002-04-22 11:09 51°36.901 2°44.65 11.8 266 11.9 103070 76
2002-04-22 11:10 51°37.033 2°44.358 11.8 265 11.9 103070 76
2002-04-22 11:11 51°37.175 2°44.074 11.2 265 11.8 103070 76
2002-04-22 11:12 51°37.321 2°43.792 11.1 266 11.9 103070 76
2002-04-22 11:13 51°37.466 2°43.509 11.8 272 11.8 103060 76
2002-04-22 11:14 51°37.608 2°43.226 11.8 276 11.8 103060 76
2002-04-22 11:15 51°37.75 2°42.941 10.5 276 11.8 103060 76
2002-04-22 11:16 51°37.89 2°42.66 10.6 277 11.8 103060 76
2002-04-22 11:17 51°38.031 2°42.381 11.3 276 11.8 103050 76
2002-04-22 11:18 51°38.146 2°42.082 11.5 259 11.8 103050 76
2002-04-22 11:19 51°38.161 2°41.739 13.3 257 11.9 103040 76
2002-04-22 11:20 51°38.17 2°41.395 13.4 258 11.9 103040 76
2002-04-22 11:21 51°38.173 2°41.055 12.9 249 11.9 103040 76
2002-04-22 11:22 51°38.108 2°40.742 13.9 248 11.9 103030 76
2002-04-22 11:23 51°38.053 2°40.416 12.8 251 12 103030 76
2002-04-22 11:24 51°37.995 2°40.09 14.4 252 12 103020 76
2002-04-22 11:25 51°37.937 2°39.768 14.3 254 12 103030 76
2002-04-22 11:26 51°37.829 2°39.498 13.5 230 12 103020 76
2002-04-22 11:27 51°37.637 2°39.381 15 226 12 103030 76
2002-04-22 11:28 51°37.435 2°39.282 13.5 227 11.9 103040 76
2002-04-22 11:29 51°37.232 2°39.184 13.3 228 11.9 103040 76
2002-04-22 11:30 51°37.03 2°39.087 13.5 228 11.9 103040 76
2002-04-22 11:31 51°36.827 2°38.993 13.3 227 11.9 103040 77
2002-04-22 11:32 51°36.626 2°38.89 14.3 225 11.8 103040 77
2002-04-22 11:33 51°36.427 2°38.78 14.2 225 11.8 103040 77
2002-04-22 11:34 51°36.228 2°38.671 13.9 227 11.8 103040 77
2002-04-22 11:35 51°36.03 2°38.566 13.3 225 11.8 103040 77
2002-04-22 11:36 51°35.831 2°38.461 13.9 225 11.8 103030 77
2002-04-22 11:37 51°35.632 2°38.359 12.2 222 11.8 103040 77
2002-04-22 11:38 51°35.429 2°38.299 13.5 220 11.8 103040 77
2002-04-22 11:39 51°35.225 2°38.235 13.6 217 11.8 103040 78
2002-04-22 11:40 51°35.027 2°38.32 10.6 198 11.8 103030 77
2002-04-22 11:41 51°34.901 2°38.608 7.8 186 11.7 103040 78
2002-04-22 11:42 51°34.797 2°38.932 8.2 190 11.6 103050 78
2002-04-22 11:43 51°34.694 2°39.258 7.2 183 11.5 103050 79
2002-04-22 11:44 51°34.591 2°39.582 7.5 186 11.4 103050 79
2002-04-22 11:45 51°34.484 2°39.902 7.2 188 11.4 103050 79
2002-04-22 11:46 51°34.378 2°40.217 7.2 185 11.4 103040 79
2002-04-22 11:47 51°34.27 2°40.533 7 182 11.4 103040 79
2002-04-22 11:48 51°34.161 2°40.852 6.8 182 11.4 103040 79
2002-04-22 11:49 51°34.054 2°41.167 7 185 11.4 103030 79
2002-04-22 11:50 51°33.946 2°41.494 7.1 183 11.4 103030 79
2002-04-22 11:51 51°33.839 2°41.818 7.9 188 11.4 103030 79
2002-04-22 11:52 51°33.733 2°42.139 7.8 184 11.4 103030 79
2002-04-22 11:53 51°33.627 2°42.453 8.9 197 11.4 103030 79
2002-04-22 11:54 51°33.451 2°42.654 12 208 11.4 103030 79
2002-04-22 11:55 51°33.237 2°42.668 12.4 218 11.5 103030 79
2002-04-22 11:56 51°33.027 2°42.597 12.5 223 11.6 103030 79
2002-04-22 11:57 51°32.821 2°42.491 13 222 11.7 103040 78
2002-04-22 11:58 51°32.615 2°42.386 13.5 224 11.8 103040 78
2002-04-22 11:59 51°32.409 2°42.281 13.9 223 11.8 103050 78
2002-04-22 12:00 51°32.202 2°42.175 13.5 224 11.8 103050 78
2002-04-22 12:01 51°31.996 2°42.068 12.3 224 11.9 103050 78
2002-04-22 12:02 51°31.796 2°41.932 13.2 315 11.9 103050 78
2002-04-22 12:03 51°31.596 2°41.792 12.2 226 11.9 103040 77
2002-04-22 12:04 51°31.395 2°41.654 13.7 227 11.9 103040 77
2002-04-22 12:05 51°31.193 2°41.516 13.2 226 11.9 103040 77
2002-04-22 12:06 51°30.991 2°41.38 13.4 227 11.9 103050 77
2002-04-22 12:07 51°30.816 2°41.177 12.7 240 11.9 103040 77
2002-04-22 12:08 51°30.697 2°40.884 13 239 11.9 103040 78
2002-04-22 12:09 51°30.585 2°40.579 13.1 240 11.9 103040 78
2002-04-22 12:10 51°30.472 2°40.273 12.7 238 11.9 103030 78
2002-04-22 12:11 51°30.359 2°39.967 13.8 241 11.9 103030 78
2002-04-22 12:12 51°30.245 2°39.661 13.7 241 11.9 103020 78
2002-04-22 12:13 51°30.159 2°39.338 12.3 249 12 103030 77
2002-04-22 12:14 51°30.147 2°38.988 13.4 255 12 103030 77
2002-04-22 12:15 51°30.144 2°38.634 12.3 255 12.1 103020 77
2002-04-22 12:16 51°30.14 2°38.284 13.6 256 12.2 103020 76
2002-04-22 12:17 51°30.137 2°37.93 13.6 253 12.2 103020 76
2002-04-22 12:18 51°30.124 2°37.575 13.2 252 12.2 103020 76
2002-04-22 12:19 51°30.108 2°37.221 12.7 250 12.3 103030 76
2002-04-22 12:20 51°30.094 2°36.866 13.1 252 12.2 103030 76
2002-04-22 12:21 51°30.052 2°36.528 13.1 242 12.2 103020 76
2002-04-22 12:22 51°29.973 2°36.205 13.2 247 12.2 103020 76
2002-04-22 12:23 51°29.904 2°35.877 13.8 245 12.2 103020 76
2002-04-22 12:24 51°29.835 2°35.549 15 244 12.2 103020 77
2002-04-22 12:25 51°29.766 2°35.219 15.3 247 12.2 103010 77
2002-04-22 12:26 51°29.698 2°34.886 15.3 245 12.2 103010 77
2002-04-22 12:27 51°29.631 2°34.551 15.3 244 12.2 103010 77
2002-04-22 12:28 51°29.559 2°34.217 14.4 240 12.2 103000 76
2002-04-22 12:29 51°29.392 2°34.018 14.9 216 12.2 103000 76
2002-04-22 12:30 51°29.185 2°34.08 11.7 198 12.1 103000 76
2002-04-22 12:31 51°28.987 2°34.238 12.8 198 11.9 103000 77
2002-04-22 12:32 51°28.782 2°34.38 11.9 200 11.8 102990 78
2002-04-22 12:33 51°28.577 2°34.523 12.5 200 11.7 103000 78
2002-04-22 12:34 51°28.375 2°34.664 12.4 200 11.7 103000 79
2002-04-22 12:35 51°28.17 2°34.803 12.8 199 11.7 103000 79
2002-04-22 12:36 51°27.97 2°34.949 12 197 11.7 103000 78
2002-04-22 12:37 51°27.769 2°35.099 11.8 198 11.7 103000 78
2002-04-22 12:38 51°27.567 2°35.248 12.3 199 11.7 103000 78
2002-04-22 12:39 51°27.366 2°35.394 12.3 194 11.7 103010 79
2002-04-22 12:40 51°27.164 2°35.541 12.4 199 11.7 103010 78
2002-04-22 12:41 51°26.963 2°35.694 11.8 194 11.7 103010 78
2002-04-22 12:42 51°26.766 2°35.855 11.3 197 11.7 103010 78
2002-04-22 12:43 51°26.568 2°36.018 10.5 195 11.7 103010 78
2002-04-22 12:44 51°26.372 2°36.18 11.2 196 11.7 103010 78
2002-04-22 12:45 51°26.179 2°36.342 11.4 193 11.7 103010 78
2002-04-22 12:46 51°25.981 2°36.495 11.5 193 11.7 103010 78
2002-04-22 12:47 51°25.785 2°36.648 11.7 194 11.8 103010 77
2002-04-22 12:48 51°25.589 2°36.811 10.5 200 11.9 103010 78
2002-04-22 12:49 51°25.396 2°36.969 12.1 196 11.9 103000 75
2002-04-22 12:50 51°25.201 2°37.127 11.4 192 12.1 103000 75
2002-04-22 12:51 51°25.007 2°37.288 11 190 12.1 103000 75
2002-04-22 12:52 51°24.814 2°37.455 9.7 187 12.1 103000 75
2002-04-22 12:53 51°24.623 2°37.632 9.6 187 12.1 103010 76
2002-04-22 12:54 51°24.435 2°37.816 8.5 182 12.1 103010 76
2002-04-22 12:55 51°24.244 2°38.009 9.8 185 12.1 103010 76
2002-04-22 12:56 51°24.053 2°38.203 9.7 186 12.1 103010 76
2002-04-22 12:57 51°23.854 2°38.368 9.2 184 12.1 103010 76
2002-04-22 12:58 51°23.648 2°38.52 10.2 186 12.1 103020 76
2002-04-22 12:59 51°23.437 2°38.644 11.3 193 12.1 103000 76
2002-04-22 13:00 51°23.22 2°38.751 11.5 193 12.1 103000 76
2002-04-22 13:01 51°23.002 2°38.85 10.7 198 12.1 103010 76
2002-04-22 13:02 51°22.786 2°38.948 11.9 195 12.1 103000 76
2002-04-22 13:03 51°22.573 2°39.045 10.6 198 12.1 103010 76
2002-04-22 13:04 51°22.364 2°39.139 11.7 198 12.1 103010 76
2002-04-22 13:05 51°22.153 2°39.234 11.3 191 12.2 103010 76
2002-04-22 13:06 51°21.94 2°39.325 10 192 12.2 103000 75
2002-04-22 13:07 51°21.735 2°39.45 9.1 186 12.3 103010 75
2002-04-22 13:08 51°21.537 2°39.6 7.4 178 12.3 103010 74
2002-04-22 13:09 51°21.392 2°39.86 8.4 174 12.4 103030 74
2002-04-22 13:10 51°21.252 2°40.139 6.2 186 12.4 103030 74
2002-04-22 13:11 51°21.143 2°40.441 5.1 168 12.4 103030 74
2002-04-22 13:12 51°21.084 2°40.78 5.9 166 12.4 103040 74
2002-04-22 13:13 51°21.003 2°41.112 5.6 168 12.4 103040 74
2002-04-22 13:14 51°20.922 2°41.446 5.4 176 12.4 103030 74
2002-04-22 13:15 51°20.841 2°41.782 5.4 168 12.4 103030 74
2002-04-22 13:16 51°20.776 2°42.113 5.3 164 12.4 103040 74
2002-04-22 13:17 51°20.71 2°42.439 4.3 153 12.5 103040 73
2002-04-22 13:18 51°20.652 2°42.772 3.7 163 12.5 103040 73
2002-04-22 13:19 51°20.603 2°43.11 4.4 148 12.6 103040 73
2002-04-22 13:20 51°20.551 2°43.45 3.9 160 12.6 103040 73
2002-04-22 13:21 51°20.499 2°43.789 4.6 155 12.6 103040 73
2002-04-22 13:22 51°20.447 2°44.129 4.2 166 12.6 103050 73
2002-04-22 13:23 51°20.396 2°44.471 4.8 165 12.6 103040 73
2002-04-22 13:24 51°20.33 2°44.808 4.8 161 12.6 103040 73
2002-04-22 13:25 51°20.262 2°45.147 4 167 12.6 103040 73
2002-04-22 13:26 51°20.187 2°45.481 4.8 164 12.6 103040 73
2002-04-22 13:27 51°20.09 2°45.799 5.3 173 12.7 103040 72
2002-04-22 13:28 51°19.976 2°46.094 4.8 166 12.7 103040 73
2002-04-22 13:29 51°19.866 2°46.392 5.1 175 12.6 103040 73
2002-04-22 13:30 51°19.754 2°46.695 5.9 170 12.6 103030 73
2002-04-22 13:31 51°19.644 2°47 5.4 166 12.6 103040 73
2002-04-22 13:32 51°19.53 2°47.305 4.8 170 12.6 103040 73
2002-04-22 13:33 51°19.416 2°47.607 5.2 163 12.6 103040 73
2002-04-22 13:34 51°19.301 2°47.909 5.5 169 12.6 103040 73
2002-04-22 13:35 51°19.188 2°48.214 4.6 174 12.6 103040 73
2002-04-22 13:36 51°19.074 2°48.51 5 170 12.6 103040 74
2002-04-22 13:37 51°18.958 2°48.799 4.1 181 12.6 103040 74
2002-04-22 13:38 51°18.842 2°49.086 4 180 12.6 103040 74
2002-04-22 13:39 51°18.726 2°49.37 4.6 178 12.6 103030 74
2002-04-22 13:40 51°18.609 2°49.655 5.3 177 12.6 103030 74
2002-04-22 13:41 51°18.488 2°49.946 5.2 173 12.6 103030 74
2002-04-22 13:42 51°18.368 2°50.236 5.2 171 12.7 103030 74
2002-04-22 13:43 51°18.244 2°50.525 4.7 173 12.7 103020 74
2002-04-22 13:44 51°18.124 2°50.815 5.6 173 12.7 103030 74
2002-04-22 13:45 51°18.004 2°51.106 5.6 169 12.7 103030 73
2002-04-22 13:46 51°17.886 2°51.395 4.6 161 12.8 103030 73
2002-04-22 13:47 51°17.768 2°51.683 4.5 166 12.8 103030 73
2002-04-22 13:48 51°17.647 2°51.973 4.3 179 12.9 103030 73
2002-04-22 13:49 51°17.489 2°52.217 6.6 180 12.9 103030 73
2002-04-22 13:50 51°17.294 2°52.402 6.2 186 12.9 103020 73
2002-04-22 13:51 51°17.098 2°52.583 6.7 187 12.8 103020 74
2002-04-22 13:52 51°16.899 2°52.75 6.8 187 12.8 103020 74
2002-04-22 13:53 51°16.689 2°52.89 7.7 187 12.8 103020 74
2002-04-22 13:54 51°16.476 2°53.037 6.6 188 12.8 103020 74
2002-04-22 13:55 51°16.265 2°53.181 7.4 194 12.8 103020 74
2002-04-22 13:56 51°16.057 2°53.329 6.8 193 12.8 103020 75
2002-04-22 13:57 51°15.872 2°53.529 5.8 185 12.8 103020 76
2002-04-22 13:58 51°15.684 2°53.727 6.8 187 12.9 103020 75
2002-04-22 13:59 51°15.499 2°53.912 5.2 189 12.9 103020 75
2002-04-22 14:00 51°15.315 2°54.092 5 189 13 103020 75
2002-04-22 14:01 51°15.133 2°54.27 5.4 193 13 103020 75
2002-04-22 14:02 51°14.947 2°54.43 4.9 183 13 103030 74
2002-04-22 14:03 51°14.768 2°54.577 4.4 177 13.1 103020 74
2002-04-22 14:04 51°14.611 2°54.755 4.4 183 13.1 103030 74
2002-04-22 14:05 51°14.471 2°54.927 4.9 177 13.1 103030 74
2002-04-22 14:06 51°14.352 2°55.106 4.7 191 13.2 103030 75
2002-04-22 14:07 51°14.263 2°55.266 3 190 13.3 103030 76
2002-04-22 14:08 51°14.197 2°55.351 3.8 198 13.4 103030 75
2002-04-22 14:09 51°14.137 2°55.404 2.5 197 13.5 103030 74
2002-04-22 14:10 51°14.073 2°55.455 1.9 172 13.6 103020 72
2002-04-22 14:11 51°14.001 2°55.511 3.2 213 13.7 103020 71
2002-04-22 14:12 51°13.928 2°55.562 2.3 185 14 103020 68
2002-04-22 14:13 51°13.861 2°55.611 3 140 14.3 103010 65
2002-04-22 14:14 51°13.805 2°55.654 0.5 104 14.5 103010 65
2002-04-22 14:15 51°13.763 2°55.694 0.2 98 14.8 103020 64
2002-04-22 14:16 51°13.736 2°55.747 1.8 89 14.9 103020 63
2002-04-22 14:17 51°13.716 2°55.803 1.9 120 15.1 103020 62
2002-04-22 14:18 51°13.696 2°55.853 1.4 75 15.3 103020 60
2002-04-22 14:19 51°13.688 2°55.895 2.2 74 15.5 103020 60
2002-04-22 14:20 51°13.686 2°55.905 3.5 73 15.7 103020 57
2002-04-22 14:21 51°13.687 2°55.906 5.4 78 15.9 103020 55
2002-04-22 14:22 51°13.688 2°55.905 6.1 76 16.1 103020 55
2002-04-22 14:23 51°13.688 2°55.905 5.5 82 16.2 103020 54
2002-04-22 14:24 51°13.688 2°55.905 4.7 51 16.3 103020 53